THY3TG LTAC-LTFM
Flight info
| Callsign | THY3TG |
|---|---|
| Flight time | 0h 47m |
| Altitude | 28000 |
| Route | YAVRU1D/21R YAVRU A4 ERSEN |
| Aircraft | A320/M-SDE3FGHIRWY/LB1 |
Departure
| Time | 2026-05-06 20:38 |
|---|---|
| Airport | Esenboğa International Airport (LTAC) |
Arrival
| Time | 2026-05-06 21:26 |
|---|---|
| Airport | İstanbul Airport (LTFM) |
| Time | Latitude | Longitude | Altitude | Speed | Heading |
|---|---|---|---|---|---|
| 2026-05-06 20:11 | 40.11385 | 32.98844 | 3113 ft | 0 kts | 126° |
| 2026-05-06 20:21 | 40.11386 | 32.98844 | 3113 ft | 1 kts | 126° |
| 2026-05-06 20:22 | 40.11399 | 32.98817 | 3113 ft | 4 kts | 116° |
| 2026-05-06 20:22 | 40.11408 | 32.98785 | 3113 ft | 4 kts | 94° |
| 2026-05-06 20:22 | 40.11404 | 32.98755 | 3113 ft | 3 kts | 40° |
| 2026-05-06 20:22 | 40.11401 | 32.98753 | 3113 ft | 0 kts | 36° |
| 2026-05-06 20:25 | 40.11402 | 32.98753 | 3113 ft | 1 kts | 36° |
| 2026-05-06 20:26 | 40.11412 | 32.98762 | 3113 ft | 3 kts | 36° |
| 2026-05-06 20:26 | 40.11432 | 32.98782 | 3113 ft | 5 kts | 36° |
| 2026-05-06 20:26 | 40.11464 | 32.98813 | 3113 ft | 7 kts | 36° |
| 2026-05-06 20:26 | 40.11508 | 32.98855 | 3113 ft | 9 kts | 38° |
| 2026-05-06 20:27 | 40.11560 | 32.98914 | 3113 ft | 11 kts | 42° |
| 2026-05-06 20:27 | 40.11631 | 32.98931 | 3113 ft | 12 kts | 321° |
| 2026-05-06 20:27 | 40.11701 | 32.98903 | 3113 ft | 12 kts | 30° |
| 2026-05-06 20:27 | 40.11774 | 32.98974 | 3113 ft | 14 kts | 37° |
| 2026-05-06 20:28 | 40.11858 | 32.99053 | 3114 ft | 16 kts | 36° |
| 2026-05-06 20:28 | 40.11950 | 32.99141 | 3114 ft | 17 kts | 36° |
| 2026-05-06 20:28 | 40.12049 | 32.99235 | 3116 ft | 18 kts | 36° |
| 2026-05-06 20:28 | 40.12153 | 32.99335 | 3117 ft | 19 kts | 36° |
| 2026-05-06 20:29 | 40.12263 | 32.99441 | 3119 ft | 20 kts | 36° |
| 2026-05-06 20:29 | 40.12379 | 32.99552 | 3120 ft | 21 kts | 36° |
| 2026-05-06 20:29 | 40.12501 | 32.99667 | 3122 ft | 22 kts | 36° |
| 2026-05-06 20:29 | 40.12609 | 32.99771 | 3123 ft | 18 kts | 36° |
| 2026-05-06 20:30 | 40.12715 | 32.99872 | 3123 ft | 19 kts | 36° |
| 2026-05-06 20:30 | 40.12878 | 33.00028 | 3124 ft | 11 kts | 36° |
| 2026-05-06 20:30 | 40.12939 | 33.00087 | 3124 ft | 12 kts | 36° |
| 2026-05-06 20:31 | 40.13009 | 33.00154 | 3124 ft | 11 kts | 36° |
| 2026-05-06 20:31 | 40.13076 | 33.00218 | 3126 ft | 12 kts | 36° |
| 2026-05-06 20:31 | 40.13148 | 33.00286 | 3125 ft | 13 kts | 36° |
| 2026-05-06 20:31 | 40.13212 | 33.00348 | 3127 ft | 11 kts | 36° |
| 2026-05-06 20:32 | 40.13279 | 33.00411 | 3129 ft | 13 kts | 36° |
| 2026-05-06 20:32 | 40.13353 | 33.00483 | 3130 ft | 14 kts | 36° |
| 2026-05-06 20:32 | 40.13436 | 33.00562 | 3131 ft | 15 kts | 36° |
| 2026-05-06 20:32 | 40.13526 | 33.00648 | 3131 ft | 17 kts | 36° |
| 2026-05-06 20:33 | 40.13622 | 33.00740 | 3132 ft | 18 kts | 36° |
| 2026-05-06 20:33 | 40.13726 | 33.00839 | 3133 ft | 18 kts | 36° |
| 2026-05-06 20:33 | 40.13826 | 33.00934 | 3134 ft | 16 kts | 37° |
| 2026-05-06 20:33 | 40.13915 | 33.01021 | 3135 ft | 16 kts | 36° |
| 2026-05-06 20:34 | 40.14007 | 33.01080 | 3136 ft | 14 kts | 8° |
| 2026-05-06 20:34 | 40.14054 | 33.01069 | 3136 ft | 5 kts | 334° |
| 2026-05-06 20:34 | 40.14069 | 33.01056 | 3136 ft | 1 kts | 323° |
| 2026-05-06 20:34 | 40.14073 | 33.01051 | 3136 ft | 0 kts | 311° |
| 2026-05-06 20:35 | 40.14075 | 33.01048 | 3136 ft | 1 kts | 311° |
| 2026-05-06 20:35 | 40.14085 | 33.01031 | 3136 ft | 4 kts | 309° |
| 2026-05-06 20:35 | 40.14102 | 33.00988 | 3136 ft | 7 kts | 287° |
| 2026-05-06 20:35 | 40.14118 | 33.00919 | 3136 ft | 10 kts | 300° |
| 2026-05-06 20:36 | 40.14166 | 33.00836 | 3136 ft | 13 kts | 307° |
| 2026-05-06 20:36 | 40.14221 | 33.00738 | 3136 ft | 12 kts | 302° |
| 2026-05-06 20:36 | 40.14195 | 33.00675 | 3136 ft | 0 kts | 216° |
| 2026-05-06 20:37 | 40.14138 | 33.00620 | 3135 ft | 39 kts | 216° |
| 2026-05-06 20:38 | 40.13725 | 33.00228 | 3131 ft | 104 kts | 216° |
| 2026-05-06 20:38 | 40.13000 | 32.99535 | 3123 ft | 151 kts | 216° |
| 2026-05-06 20:38 | 40.12067 | 32.98626 | 3361 ft | 172 kts | 217° |
| 2026-05-06 20:38 | 40.11115 | 32.97708 | 4126 ft | 169 kts | 216° |
| 2026-05-06 20:39 | 40.10163 | 32.96818 | 4860 ft | 167 kts | 216° |
| 2026-05-06 20:39 | 40.09201 | 32.95942 | 5360 ft | 175 kts | 216° |
| 2026-05-06 20:39 | 40.08167 | 32.94974 | 5705 ft | 191 kts | 216° |
| 2026-05-06 20:39 | 40.07037 | 32.93913 | 6030 ft | 211 kts | 216° |
| 2026-05-06 20:40 | 40.05765 | 32.92730 | 6306 ft | 237 kts | 216° |
| 2026-05-06 20:40 | 40.04406 | 32.91444 | 6920 ft | 248 kts | 217° |
| 2026-05-06 20:40 | 40.03002 | 32.90085 | 7711 ft | 254 kts | 218° |
| 2026-05-06 20:40 | 40.01892 | 32.88315 | 8550 ft | 258 kts | 250° |
| 2026-05-06 20:41 | 40.01739 | 32.85968 | 9174 ft | 274 kts | 283° |
| 2026-05-06 20:41 | 40.02536 | 32.83638 | 9716 ft | 289 kts | 302° |
| 2026-05-06 20:41 | 40.03761 | 32.81518 | 10343 ft | 301 kts | 309° |
| 2026-05-06 20:41 | 40.05178 | 32.79367 | 10575 ft | 325 kts | 310° |
| 2026-05-06 20:42 | 40.06695 | 32.77077 | 11001 ft | 338 kts | 309° |
| 2026-05-06 20:42 | 40.08212 | 32.74701 | 11675 ft | 343 kts | 308° |
| 2026-05-06 20:42 | 40.09703 | 32.72252 | 12406 ft | 345 kts | 307° |
| 2026-05-06 20:42 | 40.11165 | 32.69750 | 13165 ft | 347 kts | 307° |
| 2026-05-06 20:43 | 40.12617 | 32.67203 | 13892 ft | 350 kts | 307° |
| 2026-05-06 20:43 | 40.14055 | 32.64655 | 14532 ft | 353 kts | 307° |
| 2026-05-06 20:43 | 40.15517 | 32.62060 | 15169 ft | 355 kts | 307° |
| 2026-05-06 20:43 | 40.16988 | 32.59451 | 15791 ft | 358 kts | 307° |
| 2026-05-06 20:44 | 40.18471 | 32.56826 | 16084 ft | 359 kts | 307° |
| 2026-05-06 20:44 | 40.19962 | 32.54202 | 16148 ft | 359 kts | 308° |
| 2026-05-06 20:44 | 40.21648 | 32.51804 | 16149 ft | 358 kts | 317° |
| 2026-05-06 20:44 | 40.23470 | 32.49574 | 16149 ft | 358 kts | 317° |
| 2026-05-06 20:45 | 40.25285 | 32.47346 | 16146 ft | 358 kts | 317° |
| 2026-05-06 20:45 | 40.27098 | 32.45111 | 16147 ft | 358 kts | 317° |
| 2026-05-06 20:45 | 40.28911 | 32.42870 | 16147 ft | 357 kts | 317° |
| 2026-05-06 20:45 | 40.30720 | 32.40634 | 16148 ft | 357 kts | 317° |
| 2026-05-06 20:46 | 40.32529 | 32.38400 | 16144 ft | 357 kts | 317° |
| 2026-05-06 20:46 | 40.34336 | 32.36164 | 16149 ft | 357 kts | 317° |
| 2026-05-06 20:46 | 40.36139 | 32.33924 | 16146 ft | 357 kts | 317° |
| 2026-05-06 20:46 | 40.37940 | 32.31683 | 16147 ft | 357 kts | 317° |
| 2026-05-06 20:47 | 40.39744 | 32.29442 | 16150 ft | 357 kts | 317° |
| 2026-05-06 20:47 | 40.41555 | 32.27195 | 16262 ft | 361 kts | 317° |
| 2026-05-06 20:47 | 40.43385 | 32.24927 | 16915 ft | 362 kts | 317° |
| 2026-05-06 20:47 | 40.45219 | 32.22651 | 17592 ft | 363 kts | 317° |
| 2026-05-06 20:48 | 40.46896 | 32.20152 | 18216 ft | 367 kts | 306° |
| 2026-05-06 20:48 | 40.48185 | 32.17242 | 18783 ft | 372 kts | 295° |
| 2026-05-06 20:48 | 40.49139 | 32.14074 | 19338 ft | 375 kts | 292° |
| 2026-05-06 20:48 | 40.50081 | 32.10869 | 19902 ft | 377 kts | 293° |
| 2026-05-06 20:49 | 40.51035 | 32.07654 | 20460 ft | 379 kts | 293° |
| 2026-05-06 20:49 | 40.51987 | 32.04450 | 20997 ft | 382 kts | 293° |
| 2026-05-06 20:49 | 40.52954 | 32.01193 | 21520 ft | 384 kts | 293° |
| 2026-05-06 20:49 | 40.53927 | 31.97901 | 22023 ft | 387 kts | 293° |
| 2026-05-06 20:50 | 40.54902 | 31.94593 | 22514 ft | 390 kts | 293° |
| 2026-05-06 20:50 | 40.55883 | 31.91261 | 23016 ft | 392 kts | 294° |
| 2026-05-06 20:50 | 40.56869 | 31.87906 | 23517 ft | 395 kts | 294° |
| 2026-05-06 20:50 | 40.57861 | 31.84522 | 23972 ft | 397 kts | 294° |
| 2026-05-06 20:51 | 40.58831 | 31.81110 | 24389 ft | 400 kts | 292° |
| 2026-05-06 20:51 | 40.59739 | 31.77633 | 24810 ft | 402 kts | 291° |
| 2026-05-06 20:51 | 40.60600 | 31.74127 | 25224 ft | 404 kts | 290° |
| 2026-05-06 20:51 | 40.61443 | 31.70586 | 25606 ft | 407 kts | 290° |
| 2026-05-06 20:52 | 40.62290 | 31.67021 | 25989 ft | 409 kts | 290° |
| 2026-05-06 20:52 | 40.63148 | 31.63441 | 26379 ft | 411 kts | 290° |
| 2026-05-06 20:52 | 40.64022 | 31.59849 | 26762 ft | 413 kts | 291° |
| 2026-05-06 20:52 | 40.64909 | 31.56242 | 27165 ft | 415 kts | 291° |
| 2026-05-06 20:53 | 40.65803 | 31.52617 | 27563 ft | 417 kts | 291° |
| 2026-05-06 20:53 | 40.66705 | 31.48970 | 27961 ft | 419 kts | 291° |
| 2026-05-06 20:53 | 40.67608 | 31.45314 | 28117 ft | 418 kts | 291° |
| 2026-05-06 20:54 | 40.69072 | 31.39337 | 28136 ft | 410 kts | 291° |
| 2026-05-06 20:54 | 40.70821 | 31.32188 | 28136 ft | 409 kts | 291° |
| 2026-05-06 20:55 | 40.72550 | 31.25056 | 28126 ft | 409 kts | 291° |
| 2026-05-06 20:55 | 40.74275 | 31.17916 | 28124 ft | 409 kts | 291° |
| 2026-05-06 20:56 | 40.76011 | 31.10769 | 28103 ft | 409 kts | 291° |
| 2026-05-06 20:56 | 40.77737 | 31.03630 | 28100 ft | 409 kts | 291° |
| 2026-05-06 20:57 | 40.79451 | 30.96481 | 28109 ft | 408 kts | 291° |
| 2026-05-06 20:57 | 40.81156 | 30.89334 | 28112 ft | 408 kts | 291° |
| 2026-05-06 20:58 | 40.82866 | 30.82182 | 28111 ft | 408 kts | 291° |
| 2026-05-06 20:58 | 40.84558 | 30.75075 | 28108 ft | 408 kts | 290° |
| 2026-05-06 20:58 | 40.85408 | 30.71498 | 27878 ft | 407 kts | 290° |
| 2026-05-06 20:59 | 40.86251 | 30.67928 | 27273 ft | 405 kts | 289° |
| 2026-05-06 20:59 | 40.86799 | 30.64292 | 26807 ft | 403 kts | 280° |
| 2026-05-06 20:59 | 40.87145 | 30.60643 | 26387 ft | 398 kts | 281° |
| 2026-05-06 20:59 | 40.87494 | 30.57023 | 25960 ft | 396 kts | 281° |
| 2026-05-06 21:00 | 40.87849 | 30.53414 | 25525 ft | 393 kts | 281° |
| 2026-05-06 21:00 | 40.88237 | 30.49852 | 25100 ft | 390 kts | 285° |
| 2026-05-06 21:00 | 40.88789 | 30.46357 | 24826 ft | 390 kts | 281° |
| 2026-05-06 21:00 | 40.89046 | 30.42782 | 24589 ft | 391 kts | 276° |
| 2026-05-06 21:01 | 40.89115 | 30.39185 | 24351 ft | 392 kts | 273° |
| 2026-05-06 21:01 | 40.89098 | 30.35585 | 24118 ft | 391 kts | 272° |
| 2026-05-06 21:01 | 40.89070 | 30.32009 | 23865 ft | 387 kts | 272° |
| 2026-05-06 21:01 | 40.89069 | 30.28468 | 23405 ft | 383 kts | 273° |
| 2026-05-06 21:02 | 40.89105 | 30.24963 | 22964 ft | 379 kts | 274° |
| 2026-05-06 21:02 | 40.89169 | 30.21502 | 22536 ft | 375 kts | 274° |
| 2026-05-06 21:02 | 40.89249 | 30.18078 | 22093 ft | 371 kts | 274° |
| 2026-05-06 21:02 | 40.89332 | 30.14691 | 21726 ft | 365 kts | 275° |
| 2026-05-06 21:03 | 40.89410 | 30.11399 | 21588 ft | 349 kts | 275° |
| 2026-05-06 21:03 | 40.89528 | 30.08286 | 21309 ft | 330 kts | 283° |
| 2026-05-06 21:03 | 40.90263 | 30.05506 | 20677 ft | 319 kts | 305° |
| 2026-05-06 21:03 | 40.91685 | 30.03292 | 19887 ft | 316 kts | 318° |
| 2026-05-06 21:04 | 40.93285 | 30.01297 | 19239 ft | 314 kts | 319° |
| 2026-05-06 21:04 | 40.94864 | 29.99367 | 18807 ft | 305 kts | 319° |
| 2026-05-06 21:04 | 40.96538 | 29.97716 | 18279 ft | 297 kts | 335° |
| 2026-05-06 21:04 | 40.98430 | 29.96653 | 17631 ft | 294 kts | 340° |
| 2026-05-06 21:05 | 41.00318 | 29.95741 | 17031 ft | 291 kts | 345° |
| 2026-05-06 21:05 | 41.02307 | 29.95139 | 16437 ft | 288 kts | 349° |
| 2026-05-06 21:05 | 41.04228 | 29.94581 | 15864 ft | 284 kts | 340° |
| 2026-05-06 21:05 | 41.05878 | 29.93243 | 15447 ft | 277 kts | 321° |
| 2026-05-06 21:06 | 41.07314 | 29.91519 | 14793 ft | 279 kts | 319° |
| 2026-05-06 21:06 | 41.08722 | 29.89752 | 14238 ft | 278 kts | 318° |
| 2026-05-06 21:06 | 41.10117 | 29.87997 | 13689 ft | 275 kts | 318° |
| 2026-05-06 21:06 | 41.11501 | 29.86258 | 13105 ft | 273 kts | 318° |
| 2026-05-06 21:07 | 41.12874 | 29.84535 | 12521 ft | 271 kts | 318° |
| 2026-05-06 21:07 | 41.14241 | 29.82823 | 11931 ft | 270 kts | 316° |
| 2026-05-06 21:07 | 41.15278 | 29.80764 | 11353 ft | 272 kts | 291° |
| 2026-05-06 21:07 | 41.15439 | 29.78284 | 11048 ft | 275 kts | 261° |
| 2026-05-06 21:08 | 41.14799 | 29.75849 | 10999 ft | 284 kts | 249° |
| 2026-05-06 21:08 | 41.13965 | 29.73465 | 11006 ft | 286 kts | 248° |
| 2026-05-06 21:08 | 41.13104 | 29.71077 | 11010 ft | 286 kts | 248° |
| 2026-05-06 21:08 | 41.12291 | 29.68642 | 10848 ft | 294 kts | 250° |
| 2026-05-06 21:09 | 41.11514 | 29.66146 | 10605 ft | 291 kts | 251° |
| 2026-05-06 21:09 | 41.10764 | 29.63676 | 10363 ft | 287 kts | 251° |
| 2026-05-06 21:09 | 41.10024 | 29.61225 | 10121 ft | 287 kts | 251° |
| 2026-05-06 21:09 | 41.09279 | 29.58771 | 9920 ft | 286 kts | 251° |
| 2026-05-06 21:10 | 41.08530 | 29.56322 | 9780 ft | 287 kts | 251° |
| 2026-05-06 21:10 | 41.07774 | 29.53873 | 9648 ft | 286 kts | 251° |
| 2026-05-06 21:10 | 41.07019 | 29.51435 | 9515 ft | 285 kts | 251° |
| 2026-05-06 21:10 | 41.06272 | 29.49035 | 9380 ft | 278 kts | 251° |
| 2026-05-06 21:11 | 41.05543 | 29.46702 | 9245 ft | 269 kts | 251° |
| 2026-05-06 21:11 | 41.04833 | 29.44437 | 9121 ft | 265 kts | 251° |
| 2026-05-06 21:11 | 41.04141 | 29.42221 | 8986 ft | 263 kts | 251° |
| 2026-05-06 21:11 | 41.03443 | 29.39987 | 8857 ft | 262 kts | 251° |
| 2026-05-06 21:12 | 41.02746 | 29.37762 | 8724 ft | 261 kts | 251° |
| 2026-05-06 21:12 | 41.02051 | 29.35542 | 8596 ft | 260 kts | 251° |
| 2026-05-06 21:12 | 41.01362 | 29.33344 | 8467 ft | 258 kts | 251° |
| 2026-05-06 21:12 | 41.00676 | 29.31160 | 8342 ft | 257 kts | 251° |
| 2026-05-06 21:13 | 40.99991 | 29.28980 | 8214 ft | 256 kts | 251° |
| 2026-05-06 21:13 | 40.99311 | 29.26810 | 8084 ft | 255 kts | 251° |
| 2026-05-06 21:13 | 40.98634 | 29.24647 | 7963 ft | 254 kts | 251° |
| 2026-05-06 21:13 | 40.97955 | 29.22488 | 7830 ft | 253 kts | 251° |
| 2026-05-06 21:14 | 40.97280 | 29.20343 | 7712 ft | 252 kts | 251° |
| 2026-05-06 21:14 | 40.96606 | 29.18208 | 7575 ft | 251 kts | 251° |
| 2026-05-06 21:14 | 40.95934 | 29.16082 | 7461 ft | 250 kts | 251° |
| 2026-05-06 21:14 | 40.95261 | 29.13950 | 7215 ft | 252 kts | 251° |
| 2026-05-06 21:15 | 40.94584 | 29.11798 | 6930 ft | 252 kts | 251° |
| 2026-05-06 21:15 | 40.93915 | 29.09684 | 6754 ft | 247 kts | 251° |
| 2026-05-06 21:15 | 40.93257 | 29.07606 | 6555 ft | 242 kts | 251° |
| 2026-05-06 21:15 | 40.92616 | 29.05584 | 6382 ft | 236 kts | 252° |
| 2026-05-06 21:16 | 40.91987 | 29.03594 | 6110 ft | 234 kts | 251° |
| 2026-05-06 21:16 | 40.91442 | 29.01594 | 5846 ft | 228 kts | 261° |
| 2026-05-06 21:16 | 40.91289 | 28.99524 | 5576 ft | 227 kts | 275° |
| 2026-05-06 21:16 | 40.91462 | 28.97452 | 5240 ft | 227 kts | 279° |
| 2026-05-06 21:17 | 40.91646 | 28.95407 | 4928 ft | 227 kts | 278° |
| 2026-05-06 21:17 | 40.91827 | 28.93348 | 4702 ft | 223 kts | 278° |
| 2026-05-06 21:17 | 40.92003 | 28.91305 | 4340 ft | 224 kts | 278° |
| 2026-05-06 21:17 | 40.92180 | 28.89256 | 4053 ft | 223 kts | 278° |
| 2026-05-06 21:18 | 40.92355 | 28.87237 | 4010 ft | 221 kts | 278° |
| 2026-05-06 21:18 | 40.92532 | 28.85215 | 4009 ft | 221 kts | 278° |
| 2026-05-06 21:18 | 40.92709 | 28.83192 | 4007 ft | 222 kts | 278° |
| 2026-05-06 21:18 | 40.92964 | 28.81191 | 4009 ft | 221 kts | 289° |
| 2026-05-06 21:19 | 40.93696 | 28.79421 | 4009 ft | 221 kts | 310° |
| 2026-05-06 21:19 | 40.94862 | 28.78137 | 4010 ft | 215 kts | 328° |
| 2026-05-06 21:19 | 40.96146 | 28.77145 | 4008 ft | 213 kts | 327° |
| 2026-05-06 21:19 | 40.97487 | 28.76324 | 4005 ft | 215 kts | 345° |
| 2026-05-06 21:20 | 40.98983 | 28.76172 | 4012 ft | 217 kts | 356° |
| 2026-05-06 21:20 | 41.00461 | 28.76153 | 4009 ft | 208 kts | 356° |
| 2026-05-06 21:20 | 41.01906 | 28.76129 | 4008 ft | 207 kts | 356° |
| 2026-05-06 21:20 | 41.03347 | 28.76103 | 4008 ft | 207 kts | 356° |
| 2026-05-06 21:21 | 41.04780 | 28.76076 | 4008 ft | 204 kts | 356° |
| 2026-05-06 21:21 | 41.06190 | 28.76049 | 4011 ft | 202 kts | 356° |
| 2026-05-06 21:21 | 41.07595 | 28.76023 | 3919 ft | 202 kts | 356° |
| 2026-05-06 21:21 | 41.08992 | 28.75996 | 3696 ft | 200 kts | 356° |
| 2026-05-06 21:22 | 41.10381 | 28.75970 | 3439 ft | 198 kts | 356° |
| 2026-05-06 21:22 | 41.11735 | 28.75945 | 3194 ft | 191 kts | 356° |
| 2026-05-06 21:22 | 41.13031 | 28.75921 | 2951 ft | 183 kts | 357° |
| 2026-05-06 21:22 | 41.14292 | 28.75897 | 2696 ft | 179 kts | 357° |
| 2026-05-06 21:23 | 41.15522 | 28.75873 | 2454 ft | 172 kts | 357° |
| 2026-05-06 21:23 | 41.16701 | 28.75851 | 2229 ft | 168 kts | 358° |
| 2026-05-06 21:23 | 41.17862 | 28.75829 | 2004 ft | 165 kts | 358° |
| 2026-05-06 21:23 | 41.18960 | 28.75809 | 1800 ft | 151 kts | 358° |
| 2026-05-06 21:24 | 41.19979 | 28.75789 | 1588 ft | 143 kts | 358° |
| 2026-05-06 21:24 | 41.20961 | 28.75770 | 1395 ft | 139 kts | 358° |
| 2026-05-06 21:24 | 41.21925 | 28.75752 | 1208 ft | 138 kts | 359° |
| 2026-05-06 21:24 | 41.22881 | 28.75730 | 1038 ft | 137 kts | 1° |
| 2026-05-06 21:25 | 41.23837 | 28.75718 | 883 ft | 137 kts | 1° |
| 2026-05-06 21:25 | 41.24794 | 28.75701 | 687 ft | 138 kts | 1° |
| 2026-05-06 21:25 | 41.25753 | 28.75673 | 479 ft | 138 kts | 2° |
| 2026-05-06 21:25 | 41.26707 | 28.75656 | 333 ft | 132 kts | 2° |
| 2026-05-06 21:26 | 41.27491 | 28.75648 | 333 ft | 89 kts | 358° |
| 2026-05-06 21:26 | 41.27813 | 28.75638 | 333 ft | 32 kts | 359° |
| 2026-05-06 21:26 | 41.27979 | 28.75610 | 333 ft | 20 kts | 341° |
| 2026-05-06 21:26 | 41.28104 | 28.75522 | 333 ft | 18 kts | 328° |
| 2026-05-06 21:27 | 41.28165 | 28.75436 | 333 ft | 13 kts | 281° |
| 2026-05-06 21:27 | 41.28115 | 28.75350 | 333 ft | 14 kts | 186° |
| 2026-05-06 21:27 | 41.28008 | 28.75349 | 333 ft | 17 kts | 176° |
| 2026-05-06 21:27 | 41.27897 | 28.75359 | 334 ft | 17 kts | 176° |
| 2026-05-06 21:28 | 41.27767 | 28.75360 | 334 ft | 20 kts | 182° |
| 2026-05-06 21:28 | 41.27620 | 28.75361 | 331 ft | 20 kts | 180° |
| 2026-05-06 21:28 | 41.27478 | 28.75364 | 334 ft | 20 kts | 179° |
| 2026-05-06 21:28 | 41.27348 | 28.75366 | 332 ft | 17 kts | 180° |
| 2026-05-06 21:29 | 41.27222 | 28.75370 | 331 ft | 20 kts | 178° |
| 2026-05-06 21:29 | 41.27115 | 28.75373 | 333 ft | 13 kts | 179° |
| 2026-05-06 21:29 | 41.27069 | 28.75310 | 333 ft | 11 kts | 265° |
| 2026-05-06 21:29 | 41.27069 | 28.75199 | 334 ft | 12 kts | 268° |
| 2026-05-06 21:30 | 41.27004 | 28.75148 | 332 ft | 13 kts | 178° |
| 2026-05-06 21:30 | 41.26900 | 28.75152 | 330 ft | 16 kts | 179° |
| 2026-05-06 21:30 | 41.26779 | 28.75154 | 334 ft | 15 kts | 179° |
| 2026-05-06 21:30 | 41.26667 | 28.75155 | 333 ft | 16 kts | 185° |
| 2026-05-06 21:31 | 41.26552 | 28.75113 | 330 ft | 15 kts | 197° |
| 2026-05-06 21:31 | 41.26445 | 28.75070 | 331 ft | 15 kts | 197° |
| 2026-05-06 21:31 | 41.26344 | 28.75028 | 330 ft | 13 kts | 196° |
| 2026-05-06 21:31 | 41.26252 | 28.74993 | 333 ft | 13 kts | 191° |
| 2026-05-06 21:32 | 41.26181 | 28.74997 | 330 ft | 7 kts | 169° |
| 2026-05-06 21:32 | 41.26120 | 28.74970 | 332 ft | 5 kts | 252° |
| 2026-05-06 21:32 | 41.26110 | 28.74932 | 332 ft | 1 kts | 250° |
| 2026-05-06 21:33 | 41.26109 | 28.74924 | 330 ft | 0 kts | 251° |
| 2026-05-06 21:33 | 41.26107 | 28.74919 | 331 ft | 0 kts | 251° |